Time;durP1;ratioP1;P1;durP2;ratioP2;P2;SDS_P1;SDS_P2;PMS_P1;PMS_P2;Temp;Humidity;BMP_temperature;BMP_pressure;BME280_temperature;BME280_humidity;BME280_pressure;Samples;Min_cycle;Max_cycle;Signal;HPM_P1;HPM_P2
2024/03/09 00:00:28;;;;;;;16.60;13.87;;;;;;;;;;6217843;23;20196;-81
2024/03/09 00:02:56;;;;;;;16.43;13.60;;;;;;;;;;6217329;23;20619;-80
2024/03/09 00:05:24;;;;;;;16.57;13.77;;;;;;;;;;6217689;23;20192;-81
2024/03/09 00:07:55;;;;;;;16.17;14.20;;;;;;;;;;6217269;23;20227;-80
2024/03/09 00:10:23;;;;;;;17.30;14.07;;;;;;;;;;6216925;23;20240;-81
2024/03/09 00:12:53;;;;;;;17.23;14.33;;;;;;;;;;6243415;23;20208;-80
2024/03/09 00:15:23;;;;;;;16.83;13.80;;;;;;;;;;6243641;23;20199;-80
2024/03/09 00:17:54;;;;;;;18.17;14.57;;;;;;;;;;6216830;23;20170;-78
2024/03/09 00:20:28;;;;;;;16.60;14.30;;;;;;;;;;6217486;23;20165;-78
2024/03/09 00:22:57;;;;;;;18.77;14.63;;;;;;;;;;6243915;23;20215;-81
2024/03/09 00:25:28;;;;;;;17.67;14.50;;;;;;;;;;6217580;23;20173;-80
2024/03/09 00:27:59;;;;;;;18.17;14.17;;;;;;;;;;6243642;23;20259;-80
2024/03/09 00:30:32;;;;;;;17.43;14.87;;;;;;;;;;6243788;23;20149;-82
2024/03/09 00:33:00;;;;;;;17.13;14.97;;;;;;;;;;6244005;23;20184;-78
2024/03/09 00:35:29;;;;;;;17.73;14.80;;;;;;;;;;6243874;23;20201;-79
2024/03/09 00:37:59;;;;;;;19.50;15.80;;;;;;;;;;6217030;23;20169;-80
2024/03/09 00:40:30;;;;;;;18.03;15.03;;;;;;;;;;6243609;23;20195;-79
2024/03/09 00:43:05;;;;;;;19.10;15.43;;;;;;;;;;6192725;23;20158;-81
2024/03/09 00:45:34;;;;;;;17.20;14.53;;;;;;;;;;6216826;23;20595;-80
2024/03/09 00:48:03;;;;;;;18.00;15.10;;;;;;;;;;6217420;23;20223;-81
2024/03/09 00:50:31;;;;;;;19.17;15.43;;;;;;;;;;6192147;23;20175;-81
2024/03/09 00:52:59;;;;;;;17.57;14.43;;;;;;;;;;6217205;23;20246;-81
2024/03/09 00:55:26;;;;;;;17.70;15.40;;;;;;;;;;6217008;23;20325;-79
2024/03/09 00:57:56;;;;;;;18.27;15.63;;;;;;;;;;6243751;23;20171;-80
2024/03/09 01:00:26;;;;;;;17.83;14.73;;;;;;;;;;6243497;23;20161;-80
2024/03/09 01:02:56;;;;;;;17.47;15.60;;;;;;;;;;6243627;23;20167;-81
2024/03/09 01:05:28;;;;;;;18.47;15.37;;;;;;;;;;6215832;23;20177;-80
2024/03/09 01:07:56;;;;;;;18.53;15.93;;;;;;;;;;6216672;23;20169;-81
2024/03/09 01:10:25;;;;;;;18.37;15.63;;;;;;;;;;6217529;23;20157;-78
2024/03/09 01:12:52;;;;;;;18.60;16.13;;;;;;;;;;6243397;23;20201;-79
2024/03/09 01:15:20;;;;;;;18.17;14.63;;;;;;;;;;6216808;23;20160;-79
2024/03/09 01:17:48;;;;;;;19.20;15.93;;;;;;;;;;6216431;23;20195;-80
2024/03/09 01:20:15;;;;;;;20.37;16.00;;;;;;;;;;6243613;23;20245;-81
2024/03/09 01:22:44;;;;;;;19.57;15.73;;;;;;;;;;6243466;23;20215;-80
2024/03/09 01:25:12;;;;;;;19.50;16.30;;;;;;;;;;6243487;23;20161;-80
2024/03/09 01:27:40;;;;;;;20.03;16.13;;;;;;;;;;6243245;23;20185;-80
2024/03/09 01:30:09;;;;;;;18.03;15.63;;;;;;;;;;6216876;23;20165;-82
2024/03/09 01:32:40;;;;;;;21.07;17.07;;;;;;;;;;6243279;23;20185;-80
2024/03/09 01:35:08;;;;;;;19.60;15.70;;;;;;;;;;6217086;23;20157;-80
2024/03/09 01:37:36;;;;;;;19.60;16.87;;;;;;;;;;6243628;23;20164;-80
2024/03/09 01:40:06;;;;;;;21.40;17.10;;;;;;;;;;6217281;23;20190;-79
2024/03/09 01:42:34;;;;;;;18.33;15.80;;;;;;;;;;6243306;23;20191;-80
2024/03/09 01:45:04;;;;;;;20.80;16.50;;;;;;;;;;6243510;23;20206;-80
2024/03/09 01:47:32;;;;;;;19.20;15.97;;;;;;;;;;6243414;23;20245;-78
2024/03/09 01:49:59;;;;;;;19.00;15.57;;;;;;;;;;6217317;23;20171;-80
2024/03/09 01:52:31;;;;;;;20.13;15.47;;;;;;;;;;6216536;23;20189;-80
2024/03/09 01:55:06;;;;;;;17.93;15.27;;;;;;;;;;6217802;23;20166;-81
2024/03/09 01:57:34;;;;;;;19.23;15.63;;;;;;;;;;6218809;23;20247;-81
2024/03/09 02:00:02;;;;;;;18.10;15.47;;;;;;;;;;6245427;23;20169;-80
2024/03/09 02:02:32;;;;;;;18.53;15.13;;;;;;;;;;6219997;23;20243;-80
2024/03/09 02:05:03;;;;;;;20.70;16.63;;;;;;;;;;6219022;23;20169;-81
2024/03/09 02:07:33;;;;;;;19.90;16.27;;;;;;;;;;6218896;23;20239;-80
2024/03/09 02:10:00;;;;;;;18.57;15.47;;;;;;;;;;6246155;23;20223;-80
2024/03/09 02:12:28;;;;;;;19.87;16.53;;;;;;;;;;6218731;23;20243;-80
2024/03/09 02:14:55;;;;;;;18.17;15.27;;;;;;;;;;6219164;23;20165;-80
2024/03/09 02:17:25;;;;;;;20.53;16.00;;;;;;;;;;6245667;23;20165;-80
2024/03/09 02:19:53;;;;;;;19.63;15.67;;;;;;;;;;6218768;23;20196;-80
2024/03/09 02:22:21;;;;;;;20.57;16.50;;;;;;;;;;6218665;23;20176;-79
2024/03/09 02:24:54;;;;;;;18.60;15.17;;;;;;;;;;6218556;23;20235;-78
2024/03/09 02:27:25;;;;;;;18.87;15.50;;;;;;;;;;6245057;23;20181;-81
2024/03/09 02:29:53;;;;;;;21.00;16.17;;;;;;;;;;6218833;23;20153;-82
2024/03/09 02:32:21;;;;;;;21.60;16.50;;;;;;;;;;6244981;23;20195;-78
2024/03/09 02:34:49;;;;;;;19.43;16.87;;;;;;;;;;6193579;23;20196;-82
2024/03/09 02:37:18;;;;;;;19.20;15.77;;;;;;;;;;6245260;23;20248;-81
2024/03/09 02:39:47;;;;;;;20.83;16.53;;;;;;;;;;6193778;23;20165;-80
2024/03/09 02:42:14;;;;;;;20.90;16.70;;;;;;;;;;6218856;23;20163;-78
2024/03/09 02:44:44;;;;;;;22.57;16.83;;;;;;;;;;6244875;23;20161;-80
2024/03/09 02:47:12;;;;;;;22.20;16.67;;;;;;;;;;6218368;23;20173;-79
2024/03/09 02:49:40;;;;;;;21.03;17.20;;;;;;;;;;6218756;23;20165;-80
2024/03/09 02:52:10;;;;;;;22.13;17.60;;;;;;;;;;6219110;23;20616;-79
2024/03/09 02:54:38;;;;;;;21.77;16.80;;;;;;;;;;6218749;23;20224;-79
2024/03/09 02:57:07;;;;;;;19.80;16.90;;;;;;;;;;6218881;23;20199;-79
2024/03/09 02:59:35;;;;;;;22.07;17.37;;;;;;;;;;6218393;23;20255;-81
2024/03/09 03:02:14;;;;;;;21.80;17.60;;;;;;;;;;6245033;23;20196;-79
2024/03/09 03:04:42;;;;;;;23.03;17.60;;;;;;;;;;6218633;23;20223;-79
2024/03/09 03:07:09;;;;;;;20.70;16.63;;;;;;;;;;6218459;23;20187;-82
2024/03/09 03:09:36;;;;;;;21.77;17.17;;;;;;;;;;6218649;23;20173;-80
2024/03/09 03:12:07;;;;;;;21.73;17.87;;;;;;;;;;6245127;23;20211;-79
2024/03/09 03:14:39;;;;;;;23.40;18.17;;;;;;;;;;6244435;23;20655;-78
2024/03/09 03:17:07;;;;;;;23.63;18.30;;;;;;;;;;6244650;23;20161;-80
2024/03/09 03:19:34;;;;;;;23.03;17.80;;;;;;;;;;6192980;23;20169;-82
2024/03/09 03:22:02;;;;;;;24.57;17.63;;;;;;;;;;6244868;23;20496;-81
2024/03/09 03:24:31;;;;;;;23.63;18.43;;;;;;;;;;6217685;23;20260;-81
2024/03/09 03:27:01;;;;;;;23.13;18.10;;;;;;;;;;6218428;23;20191;-80
2024/03/09 03:29:28;;;;;;;24.37;17.83;;;;;;;;;;6193248;23;20165;-80
2024/03/09 03:32:01;;;;;;;22.73;17.53;;;;;;;;;;6217369;23;20176;-80
2024/03/09 03:34:31;;;;;;;22.87;18.00;;;;;;;;;;6217830;23;20200;-79
2024/03/09 03:36:58;;;;;;;24.93;18.40;;;;;;;;;;6218122;23;20169;-79
2024/03/09 03:39:27;;;;;;;21.37;17.73;;;;;;;;;;6216976;23;20164;-81
2024/03/09 03:41:54;;;;;;;23.07;18.53;;;;;;;;;;6244752;23;20197;-81
2024/03/09 03:44:23;;;;;;;24.90;18.70;;;;;;;;;;6244199;23;20168;-80
2024/03/09 03:46:51;;;;;;;24.03;19.57;;;;;;;;;;6217413;23;20161;-78
2024/03/09 03:49:18;;;;;;;21.83;18.23;;;;;;;;;;6244215;23;20234;-79
2024/03/09 03:51:46;;;;;;;23.47;18.57;;;;;;;;;;6244200;23;20175;-81
2024/03/09 03:54:15;;;;;;;24.30;18.53;;;;;;;;;;6243912;23;20220;-78
2024/03/09 03:56:42;;;;;;;25.13;20.17;;;;;;;;;;6218111;23;20612;-80
2024/03/09 03:59:10;;;;;;;23.47;18.57;;;;;;;;;;6217471;23;20256;-80
2024/03/09 04:01:37;;;;;;;24.43;18.77;;;;;;;;;;6244228;23;20164;-80
2024/03/09 04:04:06;;;;;;;23.07;19.03;;;;;;;;;;6244290;23;20169;-80
2024/03/09 04:06:35;;;;;;;21.73;18.07;;;;;;;;;;6243888;23;20236;-81
2024/03/09 04:09:04;;;;;;;24.13;18.43;;;;;;;;;;6243960;23;20612;-80
2024/03/09 04:11:34;;;;;;;25.13;19.17;;;;;;;;;;6216936;23;20646;-79
2024/03/09 04:14:06;;;;;;;24.33;18.93;;;;;;;;;;6243837;23;20255;-83
2024/03/09 04:16:33;;;;;;;24.27;19.07;;;;;;;;;;6243792;23;20161;-79
2024/03/09 04:19:04;;;;;;;26.13;19.10;;;;;;;;;;6216794;23;20594;-80
2024/03/09 04:21:32;;;;;;;23.27;18.37;;;;;;;;;;6244243;23;20236;-79
2024/03/09 04:23:59;;;;;;;25.53;19.60;;;;;;;;;;6217372;23;20161;-81
2024/03/09 04:26:26;;;;;;;25.20;19.03;;;;;;;;;;6243736;23;20185;-81
2024/03/09 04:28:54;;;;;;;25.53;19.20;;;;;;;;;;6217134;23;20251;-80
2024/03/09 04:31:25;;;;;;;25.47;19.60;;;;;;;;;;6217101;23;20167;-81
2024/03/09 04:33:53;;;;;;;25.30;19.80;;;;;;;;;;6243846;23;20187;-79
2024/03/09 04:36:20;;;;;;;24.47;19.87;;;;;;;;;;6243957;23;20179;-82
2024/03/09 04:38:47;;;;;;;23.93;19.17;;;;;;;;;;6243956;23;20183;-81
2024/03/09 04:41:16;;;;;;;27.00;20.50;;;;;;;;;;6243917;23;20168;-78
2024/03/09 04:43:45;;;;;;;26.93;20.70;;;;;;;;;;6244026;23;20193;-81
2024/03/09 04:46:14;;;;;;;25.07;19.83;;;;;;;;;;6216975;23;20173;-79
2024/03/09 04:48:40;;;;;;;27.00;21.20;;;;;;;;;;6243843;23;20179;-80
2024/03/09 04:51:08;;;;;;;26.33;20.50;;;;;;;;;;6243772;23;20425;-82
2024/03/09 04:53:35;;;;;;;26.90;20.37;;;;;;;;;;6243533;23;20666;-80
2024/03/09 04:56:03;;;;;;;30.50;21.10;;;;;;;;;;6243430;23;20659;-79
2024/03/09 04:58:30;;;;;;;28.30;20.93;;;;;;;;;;6243767;23;20157;-79
2024/03/09 05:00:57;;;;;;;29.23;21.63;;;;;;;;;;6244080;23;20169;-78
2024/03/09 05:03:25;;;;;;;25.97;20.23;;;;;;;;;;6243666;23;20165;-79
2024/03/09 05:05:52;;;;;;;26.67;21.00;;;;;;;;;;6216688;23;20198;-84
2024/03/09 05:08:19;;;;;;;26.73;21.27;;;;;;;;;;6243752;23;20184;-81
2024/03/09 05:10:46;;;;;;;27.57;21.37;;;;;;;;;;6217290;23;20187;-79
2024/03/09 05:13:13;;;;;;;27.73;21.47;;;;;;;;;;6211630;23;20220;-81
2024/03/09 05:15:42;;;;;;;28.43;21.93;;;;;;;;;;6213040;23;20165;-79
2024/03/09 05:18:11;;;;;;;27.43;21.67;;;;;;;;;;6213952;23;20249;-81
2024/03/09 05:20:39;;;;;;;28.43;21.63;;;;;;;;;;6213095;23;20165;-79
2024/03/09 05:23:07;;;;;;;26.93;22.03;;;;;;;;;;6213503;23;20166;-82
2024/03/09 05:25:41;;;;;;;31.13;22.43;;;;;;;;;;6211973;23;20165;-81
2024/03/09 05:28:12;;;;;;;29.40;22.33;;;;;;;;;;6186963;23;20185;-81
2024/03/09 05:30:43;;;;;;;30.10;22.47;;;;;;;;;;6211589;23;20216;-81
2024/03/09 05:33:11;;;;;;;28.57;22.20;;;;;;;;;;6211468;23;20197;-81
2024/03/09 05:35:39;;;;;;;30.87;23.33;;;;;;;;;;6213298;23;20189;-82
2024/03/09 05:38:08;;;;;;;29.97;22.03;;;;;;;;;;6213222;23;20162;-80
2024/03/09 05:40:40;;;;;;;29.83;22.87;;;;;;;;;;6212938;23;20165;-80
2024/03/09 05:43:09;;;;;;;29.80;23.03;;;;;;;;;;6213083;23;20191;-81
2024/03/09 05:45:39;;;;;;;29.60;22.63;;;;;;;;;;6213195;23;20168;-81
2024/03/09 05:48:08;;;;;;;30.00;23.33;;;;;;;;;;6213119;23;20172;-81
2024/03/09 05:50:38;;;;;;;31.20;22.33;;;;;;;;;;6212874;23;20161;-82
2024/03/09 05:53:05;;;;;;;31.63;23.00;;;;;;;;;;6211362;23;20188;-80
2024/03/09 05:55:33;;;;;;;30.33;23.07;;;;;;;;;;6211343;23;20166;-82
2024/03/09 05:58:02;;;;;;;29.20;22.67;;;;;;;;;;6212842;23;20161;-81
2024/03/09 06:00:31;;;;;;;29.10;22.93;;;;;;;;;;6211411;23;20240;-82
2024/03/09 06:03:06;;;;;;;29.83;23.10;;;;;;;;;;6213189;23;20208;-80
2024/03/09 06:05:35;;;;;;;29.57;23.80;;;;;;;;;;6211727;23;20192;-82
2024/03/09 06:08:05;;;;;;;30.53;23.60;;;;;;;;;;6212800;23;20165;-79
2024/03/09 06:10:33;;;;;;;31.23;24.33;;;;;;;;;;6211331;23;20169;-78
2024/03/09 06:13:07;;;;;;;31.90;24.13;;;;;;;;;;6210440;23;20592;-81
2024/03/09 06:15:34;;;;;;;29.60;24.07;;;;;;;;;;6212786;23;20166;-81
2024/03/09 06:18:02;;;;;;;28.93;23.07;;;;;;;;;;6212549;23;20212;-79
2024/03/09 06:20:32;;;;;;;28.53;23.37;;;;;;;;;;6211295;23;20189;-81
2024/03/09 06:23:00;;;;;;;26.70;21.77;;;;;;;;;;6212857;23;20166;-82
2024/03/09 06:25:29;;;;;;;29.60;22.50;;;;;;;;;;6186773;23;20201;-81
2024/03/09 06:27:59;;;;;;;27.90;22.67;;;;;;;;;;6211506;23;20190;-78
2024/03/09 06:30:27;;;;;;;29.13;23.30;;;;;;;;;;6213285;23;20602;-79
2024/03/09 06:32:59;;;;;;;29.47;22.83;;;;;;;;;;6211992;23;20154;-81
2024/03/09 06:35:30;;;;;;;26.47;21.77;;;;;;;;;;6213044;23;20189;-85
2024/03/09 06:38:04;;;;;;;29.50;22.37;;;;;;;;;;6213219;23;20166;-81
2024/03/09 06:40:34;;;;;;;26.07;21.97;;;;;;;;;;6212938;23;20158;-79
2024/03/09 06:43:03;;;;;;;26.43;21.50;;;;;;;;;;6212403;23;20173;-84
2024/03/09 06:45:30;;;;;;;25.13;21.33;;;;;;;;;;6214700;23;20170;-80
2024/03/09 06:47:58;;;;;;;27.63;22.30;;;;;;;;;;6214098;23;20632;-81
2024/03/09 06:50:28;;;;;;;25.13;20.27;;;;;;;;;;6188399;23;20181;-82
2024/03/09 06:52:56;;;;;;;29.10;22.27;;;;;;;;;;6213661;23;20612;-81
2024/03/09 06:55:25;;;;;;;29.07;23.60;;;;;;;;;;6213418;23;20181;-81
2024/03/09 06:57:56;;;;;;;29.70;24.30;;;;;;;;;;6213579;23;20169;-80
2024/03/09 07:00:25;;;;;;;28.70;22.83;;;;;;;;;;6213516;23;20172;-79
2024/03/09 07:02:53;;;;;;;27.57;23.07;;;;;;;;;;6213454;23;20196;-79
2024/03/09 07:05:21;;;;;;;29.60;22.10;;;;;;;;;;6213752;23;20162;-82
2024/03/09 07:07:49;;;;;;;25.13;22.03;;;;;;;;;;6186817;23;20220;-79
2024/03/09 07:10:19;;;;;;;25.90;21.53;;;;;;;;;;6211903;23;20172;-81
2024/03/09 07:12:49;;;;;;;25.90;21.73;;;;;;;;;;6216176;23;20204;-80
2024/03/09 07:15:16;;;;;;;24.83;21.23;;;;;;;;;;6216679;23;20202;-80
2024/03/09 07:17:44;;;;;;;25.13;21.37;;;;;;;;;;6243647;23;20677;-80
2024/03/09 07:20:13;;;;;;;22.53;20.03;;;;;;;;;;6217087;23;20215;-81
2024/03/09 07:22:45;;;;;;;30.10;23.07;;;;;;;;;;6216527;23;20173;-79
2024/03/09 07:25:17;;;;;;;24.23;20.50;;;;;;;;;;6217387;23;20175;-79
2024/03/09 07:27:48;;;;;;;24.67;20.30;;;;;;;;;;6242883;23;20225;-79
2024/03/09 07:30:18;;;;;;;25.77;21.67;;;;;;;;;;6217494;23;20219;-81
2024/03/09 07:32:49;;;;;;;24.13;20.73;;;;;;;;;;6243538;23;20247;-79
2024/03/09 07:35:18;;;;;;;23.50;19.63;;;;;;;;;;6242717;23;20173;-80
2024/03/09 07:37:52;;;;;;;22.97;18.50;;;;;;;;;;6190824;23;20169;-81
2024/03/09 07:40:20;;;;;;;25.30;19.77;;;;;;;;;;6243420;23;20180;-80
2024/03/09 07:42:48;;;;;;;28.27;22.23;;;;;;;;;;6242856;23;20157;-79
2024/03/09 07:45:16;;;;;;;23.50;19.57;;;;;;;;;;6191196;23;20181;-82
2024/03/09 07:47:45;;;;;;;24.00;20.37;;;;;;;;;;6215900;23;20235;-79
2024/03/09 07:50:15;;;;;;;23.17;18.90;;;;;;;;;;6215962;23;20259;-80
2024/03/09 07:52:47;;;;;;;22.93;19.87;;;;;;;;;;6216301;23;20158;-80
2024/03/09 07:55:18;;;;;;;21.93;19.57;;;;;;;;;;6215519;23;20195;-80
2024/03/09 07:58:10;;;;;;;20.57;18.37;;;;;;;;;;6242621;22;20169;-79
2024/03/09 08:00:51;;;;;;;20.53;18.33;;;;;;;;;;6215717;23;20173;-79
2024/03/09 08:03:20;;;;;;;21.60;19.03;;;;;;;;;;6190397;23;20169;-80
2024/03/09 08:05:48;;;;;;;19.70;17.47;;;;;;;;;;6242589;23;20175;-80
2024/03/09 08:08:17;;;;;;;21.20;19.00;;;;;;;;;;6215299;23;20219;-80
2024/03/09 08:10:52;;;;;;;21.23;18.97;;;;;;;;;;6215982;23;20165;-79
2024/03/09 08:13:21;;;;;;;20.47;18.30;;;;;;;;;;6209754;23;20204;-77
2024/03/09 08:15:48;;;;;;;22.10;18.80;;;;;;;;;;6211723;23;20181;-79
2024/03/09 08:18:15;;;;;;;21.43;19.13;;;;;;;;;;6211487;23;20264;-81
2024/03/09 08:20:43;;;;;;;20.90;18.40;;;;;;;;;;6210256;23;20165;-79
2024/03/09 08:23:11;;;;;;;21.53;18.53;;;;;;;;;;6210886;23;20173;-81
2024/03/09 08:25:38;;;;;;;22.07;19.60;;;;;;;;;;6209806;23;20168;-80
2024/03/09 08:28:05;;;;;;;21.17;18.87;;;;;;;;;;6209721;23;20185;-79
2024/03/09 08:30:36;;;;;;;22.97;20.07;;;;;;;;;;6211457;23;20188;-79
2024/03/09 08:33:04;;;;;;;23.13;20.63;;;;;;;;;;6211624;23;20157;-81
2024/03/09 08:35:33;;;;;;;23.10;20.60;;;;;;;;;;6210021;23;20189;-80
2024/03/09 08:38:01;;;;;;;22.60;20.20;;;;;;;;;;6208504;23;20235;-79
2024/03/09 08:40:31;;;;;;;28.83;20.80;;;;;;;;;;6209715;23;20189;-81
2024/03/09 08:43:01;;;;;;;23.70;21.20;;;;;;;;;;6209219;23;20244;-80
2024/03/09 08:45:29;;;;;;;23.20;20.47;;;;;;;;;;6209398;23;20536;-80
2024/03/09 08:47:57;;;;;;;22.33;19.93;;;;;;;;;;6208610;23;20664;-79
2024/03/09 08:50:25;;;;;;;21.97;18.80;;;;;;;;;;6209591;23;20249;-79
2024/03/09 08:52:53;;;;;;;23.30;20.40;;;;;;;;;;6209080;23;20181;-78
2024/03/09 08:55:20;;;;;;;22.17;19.37;;;;;;;;;;6207956;23;20185;-80
2024/03/09 08:57:48;;;;;;;20.80;18.60;;;;;;;;;;6207660;23;20631;-79
2024/03/09 09:00:19;;;;;;;21.13;18.77;;;;;;;;;;6210965;23;20166;-82
2024/03/09 09:02:48;;;;;;;19.77;17.67;;;;;;;;;;6210593;23;20165;-79
2024/03/09 09:05:18;;;;;;;20.83;18.10;;;;;;;;;;6211240;23;20165;-81
2024/03/09 09:07:46;;;;;;;18.13;16.30;;;;;;;;;;6211382;23;20186;-81
2024/03/09 09:10:14;;;;;;;19.90;17.77;;;;;;;;;;6183293;23;20169;-81
2024/03/09 09:12:43;;;;;;;18.93;16.83;;;;;;;;;;6216110;23;20238;-80
2024/03/09 09:15:11;;;;;;;21.10;18.13;;;;;;;;;;6215337;23;20203;-80
2024/03/09 09:17:42;;;;;;;20.30;18.20;;;;;;;;;;6215240;23;20173;-79
2024/03/09 09:20:12;;;;;;;21.20;18.87;;;;;;;;;;6214697;23;20723;-80
2024/03/09 09:22:47;;;;;;;20.67;18.47;;;;;;;;;;6213356;23;20168;-80
2024/03/09 09:25:19;;;;;;;21.37;19.07;;;;;;;;;;6236865;23;20167;-79
2024/03/09 09:27:48;;;;;;;21.70;19.37;;;;;;;;;;6211588;23;20185;-80
2024/03/09 09:30:16;;;;;;;21.77;19.47;;;;;;;;;;6241295;23;20164;-79
2024/03/09 09:32:43;;;;;;;21.80;18.40;;;;;;;;;;6241361;23;20169;-81
2024/03/09 09:35:12;;;;;;;20.87;18.17;;;;;;;;;;6241032;23;20185;-78
2024/03/09 09:37:41;;;;;;;22.17;19.77;;;;;;;;;;6190010;23;20169;-80
2024/03/09 09:40:08;;;;;;;21.77;18.97;;;;;;;;;;6214463;23;20627;-81
2024/03/09 09:42:36;;;;;;;21.37;19.07;;;;;;;;;;6241576;23;20161;-78
2024/03/09 09:45:03;;;;;;;21.43;19.13;;;;;;;;;;6240993;23;20239;-80
2024/03/09 09:47:32;;;;;;;21.37;19.13;;;;;;;;;;6189763;23;20176;-80
2024/03/09 09:50:00;;;;;;;21.03;18.83;;;;;;;;;;6214306;23;20168;-81
2024/03/09 09:52:32;;;;;;;21.00;18.50;;;;;;;;;;6215583;23;20181;-81
2024/03/09 09:55:01;;;;;;;22.70;19.37;;;;;;;;;;6240454;23;20181;-79
2024/03/09 09:57:31;;;;;;;22.30;19.60;;;;;;;;;;6213824;23;20168;-79
2024/03/09 09:59:58;;;;;;;20.50;18.13;;;;;;;;;;6240842;23;20191;-82
2024/03/09 10:02:26;;;;;;;21.47;18.83;;;;;;;;;;6240918;23;20232;-80
2024/03/09 10:04:53;;;;;;;24.67;22.00;;;;;;;;;;6213817;23;20173;-78
2024/03/09 10:07:26;;;;;;;31.10;27.87;;;;;;;;;;6240944;23;20217;-79
2024/03/09 10:09:55;;;;;;;23.10;20.63;;;;;;;;;;6240765;23;20141;-82
2024/03/09 10:12:23;;;;;;;21.43;19.23;;;;;;;;;;6214362;23;20169;-78
2024/03/09 10:14:52;;;;;;;20.60;18.40;;;;;;;;;;6189374;23;20181;-80
2024/03/09 10:17:20;;;;;;;21.70;19.50;;;;;;;;;;6215098;23;20640;-79
2024/03/09 10:19:49;;;;;;;19.70;17.60;;;;;;;;;;6216482;23;20161;-79
2024/03/09 10:22:16;;;;;;;21.30;19.17;;;;;;;;;;6241684;23;20172;-81
2024/03/09 10:24:56;;;;;;;21.50;18.23;;;;;;;;;;6214952;23;20173;-80
2024/03/09 10:27:28;;;;;;;20.97;18.77;;;;;;;;;;6242916;23;20192;-79
2024/03/09 10:30:15;;;;;;;21.53;19.13;;;;;;;;;;6215771;23;20165;-78
2024/03/09 10:32:43;;;;;;;34.23;18.73;;;;;;;;;;6215826;23;20173;-79
2024/03/09 10:35:11;;;;;;;19.63;17.53;;;;;;;;;;6242450;23;20181;-79
2024/03/09 10:37:40;;;;;;;19.07;17.17;;;;;;;;;;6241364;23;20172;-81
2024/03/09 10:40:14;;;;;;;19.00;17.10;;;;;;;;;;6242465;23;20161;-81
2024/03/09 10:42:43;;;;;;;19.47;17.43;;;;;;;;;;6242585;23;20165;-81
2024/03/09 10:45:12;;;;;;;18.60;16.70;;;;;;;;;;6215035;23;20168;-79
2024/03/09 10:47:48;;;;;;;18.83;16.90;;;;;;;;;;6242283;23;20212;-81
2024/03/09 10:50:19;;;;;;;19.00;17.07;;;;;;;;;;6242460;23;20203;-79
2024/03/09 10:52:57;;;;;;;18.37;16.53;;;;;;;;;;6242560;23;20617;-79
2024/03/09 10:55:28;;;;;;;18.90;16.97;;;;;;;;;;6215604;23;20187;-79
2024/03/09 10:57:58;;;;;;;18.47;16.67;;;;;;;;;;6242473;23;20175;-80
2024/03/09 11:00:29;;;;;;;18.50;16.60;;;;;;;;;;6215612;23;20173;-78
2024/03/09 11:03:00;;;;;;;18.03;16.33;;;;;;;;;;6242049;23;20702;-80
2024/03/09 11:05:30;;;;;;;18.90;16.90;;;;;;;;;;6243074;23;20153;-80
2024/03/09 11:07:58;;;;;;;18.80;16.80;;;;;;;;;;6242835;23;20161;-80
2024/03/09 11:10:26;;;;;;;18.87;17.00;;;;;;;;;;6191140;23;20174;-81
2024/03/09 11:12:54;;;;;;;18.77;16.93;;;;;;;;;;6242178;23;20243;-82
2024/03/09 11:15:25;;;;;;;19.23;17.23;;;;;;;;;;6214737;23;20196;-80
2024/03/09 11:17:56;;;;;;;19.80;17.73;;;;;;;;;;6215896;23;20244;-79
2024/03/09 11:20:24;;;;;;;19.03;17.07;;;;;;;;;;6215642;23;20158;-79
2024/03/09 11:22:52;;;;;;;19.00;17.10;;;;;;;;;;6190889;23;20369;-79
2024/03/09 11:25:44;;;;;;;18.17;16.37;;;;;;;;;;6242383;23;20161;-79
2024/03/09 11:28:15;;;;;;;18.20;16.40;;;;;;;;;;6242441;23;20251;-79
2024/03/09 11:31:25;;;;;;;20.53;18.43;;;;;;;;;;6242416;23;20237;-80
2024/03/09 11:33:57;;;;;;;19.47;17.37;;;;;;;;;;6242347;23;20619;-79
2024/03/09 11:36:44;;;;;;;22.17;19.87;;;;;;;;;;6242134;23;20184;-81
2024/03/09 11:39:12;;;;;;;18.70;16.80;;;;;;;;;;6215270;23;20175;-80
2024/03/09 11:41:44;;;;;;;20.13;18.03;;;;;;;;;;6242827;23;20168;-80
2024/03/09 11:44:15;;;;;;;19.17;17.27;;;;;;;;;;6242545;23;20631;-80
2024/03/09 11:46:43;;;;;;;19.63;17.63;;;;;;;;;;6215826;23;20244;-81
2024/03/09 11:49:12;;;;;;;17.30;15.60;;;;;;;;;;6242372;23;20161;-79
2024/03/09 11:51:40;;;;;;;19.97;17.93;;;;;;;;;;6215728;23;20200;-79
2024/03/09 11:54:12;;;;;;;19.43;17.33;;;;;;;;;;6242496;23;20222;-78
2024/03/09 11:56:41;;;;;;;20.47;18.37;;;;;;;;;;6216147;23;20181;-80
2024/03/09 11:59:12;;;;;;;20.73;18.60;;;;;;;;;;6216732;23;20153;-79
2024/03/09 12:01:40;;;;;;;21.20;18.60;;;;;;;;;;6242464;23;20169;-81
2024/03/09 12:04:08;;;;;;;22.13;19.50;;;;;;;;;;6190612;23;20173;-79
2024/03/09 12:06:35;;;;;;;18.90;16.97;;;;;;;;;;6190478;23;20636;-79
2024/03/09 12:09:06;;;;;;;21.03;18.83;;;;;;;;;;6241842;23;20259;-79
2024/03/09 12:11:34;;;;;;;19.50;17.47;;;;;;;;;;6242181;23;20169;-79
2024/03/09 12:14:01;;;;;;;20.80;18.60;;;;;;;;;;6210055;23;20210;-80
2024/03/09 12:16:29;;;;;;;24.77;20.63;;;;;;;;;;6211840;23;20208;-79
2024/03/09 12:18:59;;;;;;;18.13;16.33;;;;;;;;;;6211924;23;20647;-80
2024/03/09 12:21:26;;;;;;;18.27;16.33;;;;;;;;;;6210429;23;20248;-78
2024/03/09 12:23:58;;;;;;;17.60;15.70;;;;;;;;;;6211876;23;20169;-79
2024/03/09 12:26:27;;;;;;;17.93;16.03;;;;;;;;;;6211993;23;20186;-79
2024/03/09 12:29:03;;;;;;;20.73;17.97;;;;;;;;;;6210164;23;20186;-78
2024/03/09 12:31:31;;;;;;;21.03;18.83;;;;;;;;;;6211774;23;20168;-79
2024/03/09 12:33:59;;;;;;;18.57;16.40;;;;;;;;;;6210492;23;20170;-80
2024/03/09 12:36:28;;;;;;;20.80;18.17;;;;;;;;;;6210484;23;20217;-81
2024/03/09 12:39:09;;;;;;;19.50;17.47;;;;;;;;;;6209217;23;20173;-79
2024/03/09 12:41:37;;;;;;;19.43;17.50;;;;;;;;;;6211650;23;20161;-80
2024/03/09 12:44:05;;;;;;;18.33;16.43;;;;;;;;;;6185641;23;20165;-79
2024/03/09 12:46:36;;;;;;;26.20;19.80;;;;;;;;;;6210064;23;20663;-79
2024/03/09 12:49:08;;;;;;;21.10;16.93;;;;;;;;;;6185790;23;20185;-79
2024/03/09 12:51:37;;;;;;;20.80;18.23;;;;;;;;;;6211300;23;20244;-79
2024/03/09 12:54:08;;;;;;;20.60;18.40;;;;;;;;;;6210307;23;20257;-80
2024/03/09 12:56:38;;;;;;;19.70;17.70;;;;;;;;;;6211670;23;20188;-80
2024/03/09 12:59:14;;;;;;;19.43;17.43;;;;;;;;;;6211608;23;20249;-79
2024/03/09 13:01:44;;;;;;;21.33;19.10;;;;;;;;;;6211671;23;20152;-79
2024/03/09 13:04:14;;;;;;;21.27;18.50;;;;;;;;;;6211564;23;20165;-79
2024/03/09 13:06:41;;;;;;;20.10;17.73;;;;;;;;;;6211361;23;20652;-81
2024/03/09 13:09:14;;;;;;;20.20;18.10;;;;;;;;;;6210059;23;20698;-80
2024/03/09 13:11:46;;;;;;;20.60;18.50;;;;;;;;;;6211596;23;20189;-81
2024/03/09 13:14:21;;;;;;;21.10;18.90;;;;;;;;;;6235679;23;20272;-79
2024/03/09 13:16:49;;;;;;;18.80;16.80;;;;;;;;;;6241504;23;20188;-79
2024/03/09 13:19:17;;;;;;;18.97;16.97;;;;;;;;;;6241721;23;20169;-79
2024/03/09 13:21:53;;;;;;;21.30;18.80;;;;;;;;;;6215028;23;20239;-79
2024/03/09 13:24:24;;;;;;;22.23;19.57;;;;;;;;;;6214577;23;20183;-81
2024/03/09 13:26:53;;;;;;;20.20;17.60;;;;;;;;;;6214693;23;20271;-81
2024/03/09 13:29:27;;;;;;;20.97;18.77;;;;;;;;;;6241156;23;20256;-80
2024/03/09 13:31:57;;;;;;;21.80;19.47;;;;;;;;;;6241477;23;20216;-80
2024/03/09 13:34:29;;;;;;;19.53;17.43;;;;;;;;;;6214568;23;20916;-79
2024/03/09 13:36:59;;;;;;;20.00;17.90;;;;;;;;;;6240941;23;20181;-81
2024/03/09 13:39:34;;;;;;;20.37;18.10;;;;;;;;;;6214094;23;20192;-80
2024/03/09 13:42:08;;;;;;;20.77;18.57;;;;;;;;;;6214516;23;20252;-82
2024/03/09 13:44:36;;;;;;;20.60;18.40;;;;;;;;;;6213332;23;20165;-79
2024/03/09 13:47:05;;;;;;;20.33;18.13;;;;;;;;;;6214892;23;20642;-80
2024/03/09 13:49:33;;;;;;;19.43;17.23;;;;;;;;;;6214868;23;20236;-81
2024/03/09 13:52:02;;;;;;;19.43;16.07;;;;;;;;;;6239652;23;20165;-79
2024/03/09 13:54:29;;;;;;;19.77;17.50;;;;;;;;;;6242012;23;20221;-81
2024/03/09 13:56:56;;;;;;;20.67;18.47;;;;;;;;;;6215770;23;20185;-81
2024/03/09 13:59:26;;;;;;;21.40;18.60;;;;;;;;;;6242393;23;20230;-82
2024/03/09 14:01:55;;;;;;;23.07;18.77;;;;;;;;;;6190848;23;20640;-79
2024/03/09 14:04:23;;;;;;;23.80;19.20;;;;;;;;;;6216068;23;20165;-81
2024/03/09 14:06:52;;;;;;;35.47;23.37;;;;;;;;;;6190905;23;20205;-81
2024/03/09 14:09:44;;;;;;;20.03;17.17;;;;;;;;;;6242074;23;20157;-80
2024/03/09 14:12:19;;;;;;;21.23;19.03;;;;;;;;;;6240990;23;20145;-80
2024/03/09 14:14:54;;;;;;;18.37;16.30;;;;;;;;;;6242034;23;20175;-78
2024/03/09 14:17:22;;;;;;;22.07;17.93;;;;;;;;;;6242474;23;20177;-82
2024/03/09 14:19:52;;;;;;;24.57;20.40;;;;;;;;;;6215228;23;20176;-83
2024/03/09 14:22:23;;;;;;;20.27;17.90;;;;;;;;;;6242644;23;20248;-78
2024/03/09 14:24:56;;;;;;;19.10;16.87;;;;;;;;;;6216723;23;20219;-80
2024/03/09 14:27:23;;;;;;;18.03;16.23;;;;;;;;;;6242197;23;20204;-79
2024/03/09 14:29:50;;;;;;;18.73;16.83;;;;;;;;;;6239755;23;20215;-80